Time;durP1;ratioP1;P1;durP2;ratioP2;P2;SDS_P1;SDS_P2;PMS_P1;PMS_P2;Temp;Humidity;BMP_temperature;BMP_pressure;BME280_temperature;BME280_humidity;BME280_pressure;Samples;Min_cycle;Max_cycle;Signal;HPM_P1;HPM_P2
2023/03/06 00:02:07;;;;;;;4.77;4.37;;;;;;;3.75;100.00;99427.50;5105053;28;20496;-67
2023/03/06 00:04:34;;;;;;;13.53;4.17;;;;;;;3.59;100.00;99425.16;5103858;28;20439;-68
2023/03/06 00:07:00;;;;;;;6.13;3.83;;;;;;;3.68;100.00;99418.31;5119929;28;20475;-69
2023/03/06 00:09:27;;;;;;;9.30;3.60;;;;;;;3.50;100.00;99418.78;5110015;28;20462;-69
2023/03/06 00:11:54;;;;;;;5.23;3.87;;;;;;;3.71;100.00;99408.34;5099568;28;20514;-69
2023/03/06 00:14:22;;;;;;;8.80;4.77;;;;;;;3.91;100.00;99413.94;5119807;28;20522;-69
2023/03/06 00:16:48;;;;;;;4.43;3.70;;;;;;;3.82;100.00;99404.06;5105933;28;21002;-69
2023/03/06 00:19:15;;;;;;;8.03;3.90;;;;;;;3.94;100.00;99416.31;5101462;28;20478;-67
2023/03/06 00:21:42;;;;;;;4.30;3.20;;;;;;;3.84;100.00;99410.09;5120248;28;20475;-69
2023/03/06 00:24:08;;;;;;;5.07;4.57;;;;;;;3.87;100.00;99412.47;5111374;28;20471;-68
2023/03/06 00:26:35;;;;;;;4.83;4.23;;;;;;;3.73;100.00;99405.59;5102525;28;20504;-69
2023/03/06 00:29:02;;;;;;;6.10;4.73;;;;;;;3.81;100.00;99405.03;5124486;28;20431;-70
2023/03/06 00:31:30;;;;;;;4.47;3.77;;;;;;;3.94;100.00;99396.03;5109529;28;20470;-66
2023/03/06 00:33:56;;;;;;;9.20;5.73;;;;;;;3.85;100.00;99403.81;5108507;28;20506;-70
2023/03/06 00:36:23;;;;;;;5.63;4.90;;;;;;;3.97;100.00;99400.22;5123472;28;20471;-69
2023/03/06 00:38:50;;;;;;;6.43;4.50;;;;;;;4.02;100.00;99405.16;5105934;28;20467;-70
2023/03/06 00:41:16;;;;;;;7.93;4.33;;;;;;;4.03;100.00;99390.97;5107116;28;20859;-70
2023/03/06 00:43:43;;;;;;;6.03;5.30;;;;;;;4.00;100.00;99393.88;5111143;28;20643;-69
2023/03/06 00:46:10;;;;;;;5.30;4.60;;;;;;;3.89;100.00;99390.25;5109351;28;20884;-70
2023/03/06 00:48:38;;;;;;;5.20;4.70;;;;;;;3.94;100.00;99381.94;5104157;28;20488;-67
2023/03/06 00:51:05;;;;;;;4.83;4.33;;;;;;;3.91;100.00;99390.97;5106419;28;20565;-67
2023/03/06 00:53:32;;;;;;;7.60;4.53;;;;;;;3.95;100.00;99381.00;5124004;28;20559;-70
2023/03/06 00:55:59;;;;;;;9.80;5.00;;;;;;;3.97;100.00;99379.06;5110850;28;20579;-70
2023/03/06 00:58:25;;;;;;;5.87;5.07;;;;;;;3.92;100.00;99373.28;5108049;28;20495;-69
2023/03/06 01:00:52;;;;;;;5.10;4.60;;;;;;;3.92;100.00;99373.28;5102343;28;20475;-69
2023/03/06 01:03:19;;;;;;;6.33;4.80;;;;;;;4.00;100.00;99375.34;5103357;28;20461;-69
2023/03/06 01:05:47;;;;;;;6.30;5.30;;;;;;;3.93;100.00;99369.69;5102738;28;20487;-69
2023/03/06 01:08:14;;;;;;;5.50;4.43;;;;;;;3.88;100.00;99371.88;5103064;28;20956;-69
2023/03/06 01:10:40;;;;;;;6.60;5.10;;;;;;;3.91;100.00;99366.34;5102712;28;20498;-69
2023/03/06 01:13:07;;;;;;;7.47;5.43;;;;;;;3.95;100.00;99375.69;5102352;28;20504;-69
2023/03/06 01:15:34;;;;;;;7.60;5.30;;;;;;;3.95;100.00;99363.31;5110680;28;20487;-68
2023/03/06 01:18:00;;;;;;;11.07;5.60;;;;;;;3.74;100.00;99360.53;5107828;28;20715;-69
2023/03/06 01:20:27;;;;;;;6.50;5.90;;;;;;;3.67;100.00;99348.78;5112118;28;21018;-69
2023/03/06 01:22:55;;;;;;;8.17;5.83;;;;;;;3.49;100.00;99345.75;5123909;28;20428;-67
2023/03/06 01:25:22;;;;;;;7.47;5.30;;;;;;;3.57;100.00;99345.16;5091598;28;20469;-67
2023/03/06 01:27:49;;;;;;;7.60;6.40;;;;;;;3.51;100.00;99332.44;5093043;28;20455;-69
2023/03/06 01:30:16;;;;;;;8.03;6.43;;;;;;;3.44;100.00;99331.19;5105550;28;20476;-67
2023/03/06 01:32:43;;;;;;;9.37;7.50;;;;;;;3.49;100.00;99329.03;5103890;28;20468;-67
2023/03/06 01:35:10;;;;;;;12.50;7.60;;;;;;;3.25;100.00;99329.13;5102406;28;20523;-69
2023/03/06 01:37:37;;;;;;;10.83;7.30;;;;;;;3.22;100.00;99324.09;5104051;28;20459;-69
2023/03/06 01:40:07;;;;;;;11.10;7.43;;;;;;;3.34;100.00;99320.50;5102779;28;20817;-69
2023/03/06 01:42:34;;;;;;;10.03;7.93;;;;;;;3.38;100.00;99320.13;5101994;28;21001;-69
2023/03/06 01:45:03;;;;;;;12.73;8.77;;;;;;;3.23;100.00;99317.81;5103277;28;20701;-69
2023/03/06 01:47:30;;;;;;;15.37;8.70;;;;;;;3.26;100.00;99322.88;5101653;28;20565;-67
2023/03/06 01:49:57;;;;;;;15.17;9.63;;;;;;;3.33;100.00;99318.81;5102840;28;20439;-69
2023/03/06 01:52:27;;;;;;;17.43;10.57;;;;;;;3.22;100.00;99318.78;5101784;28;20517;-69
2023/03/06 01:54:55;;;;;;;12.37;9.70;;;;;;;3.31;100.00;99311.00;5110990;28;20946;-69
2023/03/06 01:57:25;;;;;;;12.87;8.80;;;;;;;3.12;100.00;99311.56;5103078;28;20609;-69
2023/03/06 01:59:56;;;;;;;16.33;10.70;;;;;;;3.24;100.00;99306.31;5106223;28;20439;-69
2023/03/06 02:02:23;;;;;;;16.20;10.93;;;;;;;3.23;100.00;99308.13;5101638;28;20546;-69
2023/03/06 02:04:49;;;;;;;20.57;13.00;;;;;;;3.41;100.00;99310.31;5110815;28;20443;-70
2023/03/06 02:07:19;;;;;;;12.10;9.97;;;;;;;3.28;100.00;99305.97;5100377;28;20483;-70
2023/03/06 02:09:46;;;;;;;16.73;10.87;;;;;;;3.32;100.00;99304.75;5103770;28;20514;-71
2023/03/06 02:12:14;;;;;;;16.27;11.03;;;;;;;3.32;100.00;99293.38;5100257;28;20486;-69
2023/03/06 02:14:43;;;;;;;16.20;12.30;;;;;;;3.11;100.00;99295.84;5101474;28;20437;-68
2023/03/06 02:17:13;;;;;;;17.20;12.30;;;;;;;2.95;100.00;99296.16;5101686;28;20586;-69
2023/03/06 02:19:47;;;;;;;17.30;10.83;;;;;;;3.09;100.00;99293.31;5112436;28;20472;-69
2023/03/06 02:22:13;;;;;;;16.03;11.07;;;;;;;3.06;100.00;99292.72;5115915;28;20503;-72
2023/03/06 02:24:46;;;;;;;14.63;10.57;;;;;;;2.98;100.00;99286.19;5101980;28;20433;-69
2023/03/06 02:27:16;;;;;;;14.67;11.37;;;;;;;2.89;100.00;99296.63;5119809;28;20475;-71
2023/03/06 02:29:43;;;;;;;14.67;11.43;;;;;;;2.81;100.00;99302.47;5109286;28;20443;-70
2023/03/06 02:32:10;;;;;;;18.67;11.60;;;;;;;2.87;100.00;99302.00;5103710;28;20496;-72
2023/03/06 02:34:52;;;;;;;16.97;11.70;;;;;;;2.81;100.00;99291.91;5122041;28;20501;-68
2023/03/06 02:37:19;;;;;;;16.43;12.33;;;;;;;2.81;100.00;99289.25;5106193;28;20491;-71
2023/03/06 02:39:48;;;;;;;16.27;11.40;;;;;;;2.92;100.00;99288.47;5109387;28;20450;-71
2023/03/06 02:42:20;;;;;;;19.70;11.30;;;;;;;3.07;100.00;99271.44;5113716;28;20592;-72
2023/03/06 02:44:47;;;;;;;16.03;12.00;;;;;;;3.18;100.00;99271.47;5116308;28;20474;-68
2023/03/06 02:47:14;;;;;;;18.23;12.90;;;;;;;3.29;100.00;99270.66;5119379;28;20487;-69
2023/03/06 02:49:41;;;;;;;20.90;12.50;;;;;;;3.28;100.00;99268.13;5110806;28;20547;-68
2023/03/06 02:52:07;;;;;;;15.80;11.80;;;;;;;3.13;100.00;99275.44;5102437;28;20939;-72
2023/03/06 02:54:34;;;;;;;17.90;12.17;;;;;;;3.14;100.00;99261.25;5113466;28;20470;-71
2023/03/06 02:57:01;;;;;;;18.23;12.57;;;;;;;3.10;100.00;99257.19;5119915;28;20543;-72
2023/03/06 02:59:29;;;;;;;18.60;12.50;;;;;;;2.83;100.00;99253.06;5121078;28;20459;-69
2023/03/06 03:01:55;;;;;;;17.03;11.37;;;;;;;2.89;100.00;99244.66;5120566;28;20499;-68
2023/03/06 03:04:22;;;;;;;15.50;12.13;;;;;;;2.78;100.00;99245.47;5120236;28;20427;-69
2023/03/06 03:06:49;;;;;;;21.80;12.23;;;;;;;2.69;100.00;99232.97;5100409;28;20471;-71
2023/03/06 03:09:15;;;;;;;16.93;12.27;;;;;;;2.66;100.00;99234.97;5110127;28;20454;-71
2023/03/06 03:11:42;;;;;;;20.17;11.30;;;;;;;2.59;100.00;99230.19;5120357;28;20471;-71
2023/03/06 03:14:09;;;;;;;16.93;11.53;;;;;;;2.50;100.00;99227.38;5103567;28;20522;-68
2023/03/06 03:16:37;;;;;;;20.33;12.43;;;;;;;2.42;100.00;99222.69;5100198;28;20987;-68
2023/03/06 03:19:03;;;;;;;19.13;13.60;;;;;;;2.66;100.00;99224.41;5101285;28;20471;-71
2023/03/06 03:21:30;;;;;;;17.73;12.03;;;;;;;2.85;100.00;99222.09;5100721;28;20517;-71
2023/03/06 03:23:56;;;;;;;17.67;11.03;;;;;;;2.80;100.00;99226.88;5100982;28;20466;-71
2023/03/06 03:26:23;;;;;;;18.57;12.50;;;;;;;2.77;100.00;99227.09;5100164;28;20554;-72
2023/03/06 03:28:50;;;;;;;18.97;12.07;;;;;;;2.82;100.00;99214.41;5100578;28;20950;-70
2023/03/06 03:31:16;;;;;;;16.07;12.40;;;;;;;2.74;100.00;99215.00;5108535;28;20473;-67
2023/03/06 03:33:44;;;;;;;14.93;11.53;;;;;;;2.92;100.00;99207.47;5121542;28;20533;-68
2023/03/06 03:36:11;;;;;;;17.63;11.80;;;;;;;3.04;100.00;99204.81;5101042;28;20587;-70
2023/03/06 03:38:37;;;;;;;16.73;11.90;;;;;;;3.01;100.00;99208.56;5114510;28;20545;-69
2023/03/06 03:41:05;;;;;;;18.50;12.60;;;;;;;3.09;100.00;99206.19;5115329;28;20517;-70
2023/03/06 03:43:32;;;;;;;15.93;11.30;;;;;;;3.10;100.00;99201.72;5100999;28;20481;-72
2023/03/06 03:45:58;;;;;;;16.13;12.20;;;;;;;2.74;100.00;99206.22;5100520;28;21029;-68
2023/03/06 03:48:25;;;;;;;16.60;11.83;;;;;;;3.00;100.00;99198.94;5111526;28;20458;-69
2023/03/06 03:50:53;;;;;;;16.90;11.53;;;;;;;3.12;100.00;99199.81;5119231;28;20481;-69
2023/03/06 03:53:19;;;;;;;13.73;9.90;;;;;;;3.18;100.00;99194.06;5100558;28;20579;-68
2023/03/06 03:55:47;;;;;;;22.60;12.10;;;;;;;3.17;100.00;99187.09;5110532;28;20537;-68
2023/03/06 03:58:13;;;;;;;19.60;12.20;;;;;;;3.10;100.00;99192.00;5120603;28;20465;-66
2023/03/06 04:00:40;;;;;;;16.10;11.20;;;;;;;3.03;100.00;99196.06;5100252;28;21227;-68
2023/03/06 04:03:06;;;;;;;14.67;11.10;;;;;;;3.08;100.00;99187.81;5112198;28;20444;-69
2023/03/06 04:05:33;;;;;;;17.70;12.97;;;;;;;3.08;100.00;99188.63;5124187;28;20473;-68
2023/03/06 04:08:03;;;;;;;20.10;12.50;;;;;;;2.89;100.00;99191.84;5083982;28;20792;-69
2023/03/06 04:10:30;;;;;;;18.13;11.80;;;;;;;2.81;100.00;99187.19;5114791;28;20437;-69
2023/03/06 04:12:56;;;;;;;14.50;11.47;;;;;;;2.83;100.00;99177.34;5124001;28;20485;-67
2023/03/06 04:15:23;;;;;;;17.30;13.10;;;;;;;2.73;100.00;99168.44;5122565;28;20446;-68
2023/03/06 04:17:50;;;;;;;17.23;10.77;;;;;;;2.62;100.00;99166.63;5104503;28;20514;-66
2023/03/06 04:20:17;;;;;;;18.20;11.53;;;;;;;2.62;100.00;99166.63;5103946;28;20446;-70
2023/03/06 04:22:43;;;;;;;18.90;12.17;;;;;;;2.54;100.00;99174.28;5106780;28;20460;-70
2023/03/06 04:25:11;;;;;;;18.13;11.83;;;;;;;2.49;100.00;99165.03;5124146;28;20935;-68
2023/03/06 04:27:38;;;;;;;15.17;10.80;;;;;;;2.47;100.00;99173.06;5110255;28;20489;-70
2023/03/06 04:30:06;;;;;;;16.17;11.80;;;;;;;2.50;100.00;99178.13;5102619;28;20473;-68
2023/03/06 04:32:33;;;;;;;16.83;11.67;;;;;;;2.78;100.00;99179.50;5103116;28;20506;-71
2023/03/06 04:34:59;;;;;;;20.27;11.50;;;;;;;3.02;100.00;99178.53;5104423;28;20521;-70
2023/03/06 04:37:26;;;;;;;18.93;13.77;;;;;;;2.96;100.00;99179.88;5110995;28;20494;-70
2023/03/06 04:39:53;;;;;;;20.97;12.93;;;;;;;3.08;100.00;99182.53;5124644;28;20427;-70
2023/03/06 04:42:21;;;;;;;16.13;12.13;;;;;;;3.24;100.00;99180.34;5123177;28;20542;-66
2023/03/06 04:44:48;;;;;;;18.13;11.70;;;;;;;3.38;100.00;99180.09;5115782;28;20454;-71
2023/03/06 04:47:14;;;;;;;17.57;11.70;;;;;;;3.36;100.00;99168.00;5103976;28;20513;-70
2023/03/06 04:49:41;;;;;;;17.27;11.77;;;;;;;3.17;100.00;99172.06;5124971;28;20469;-70
2023/03/06 04:52:08;;;;;;;14.87;11.83;;;;;;;3.23;100.00;99169.91;5123004;28;20481;-70
2023/03/06 04:54:34;;;;;;;15.47;10.57;;;;;;;3.33;100.00;99168.22;5124082;28;20480;-69
2023/03/06 04:57:01;;;;;;;19.37;11.90;;;;;;;3.08;100.00;99159.59;5122772;28;20498;-68
2023/03/06 04:59:29;;;;;;;17.70;12.67;;;;;;;3.17;100.00;99165.94;5106990;28;20471;-68
2023/03/06 05:01:56;;;;;;;18.80;10.43;;;;;;;2.94;100.00;99162.47;5103322;28;20517;-67
2023/03/06 05:04:23;;;;;;;16.70;11.23;;;;;;;2.97;100.00;99160.44;5104454;28;20459;-69
2023/03/06 05:06:50;;;;;;;16.80;11.10;;;;;;;2.85;100.00;99158.75;5102604;28;21045;-69
2023/03/06 05:09:16;;;;;;;16.70;11.60;;;;;;;2.96;100.00;99157.91;5103082;28;20451;-68
2023/03/06 05:11:43;;;;;;;16.57;10.90;;;;;;;3.07;100.00;99155.25;5102233;28;20490;-69
2023/03/06 05:14:10;;;;;;;13.23;9.70;;;;;;;3.04;100.00;99154.66;5103273;28;20579;-69
2023/03/06 05:16:38;;;;;;;15.93;10.70;;;;;;;3.01;100.00;99153.94;5103174;28;20905;-69
2023/03/06 05:19:04;;;;;;;14.37;9.57;;;;;;;3.29;100.00;99146.50;5105326;28;20482;-69
2023/03/06 05:21:31;;;;;;;15.53;10.23;;;;;;;3.21;100.00;99143.59;5082970;28;20478;-68
2023/03/06 05:23:57;;;;;;;12.70;9.43;;;;;;;3.08;100.00;99140.28;5104440;28;20507;-68
2023/03/06 05:26:24;;;;;;;11.60;9.60;;;;;;;3.23;100.00;99141.72;5093610;28;20517;-70
2023/03/06 05:28:51;;;;;;;14.17;9.93;;;;;;;3.31;100.00;99138.44;5105061;28;20691;-72
2023/03/06 05:31:17;;;;;;;13.10;10.37;;;;;;;3.22;100.00;99133.91;5099260;28;20513;-74
2023/03/06 05:33:45;;;;;;;10.10;8.33;;;;;;;3.33;100.00;99134.75;5100232;28;20509;-63
2023/03/06 05:36:12;;;;;;;11.13;9.13;;;;;;;3.33;100.00;99131.25;5092552;28;20475;-63
2023/03/06 05:38:39;;;;;;;14.57;9.47;;;;;;;3.43;100.00;99128.72;5100739;28;20455;-65
2023/03/06 05:41:05;;;;;;;14.07;9.90;;;;;;;3.24;100.00;99130.16;5097201;28;20515;-63
2023/03/06 05:43:32;;;;;;;15.20;9.13;;;;;;;3.54;100.00;99132.19;5078529;28;20523;-62
2023/03/06 05:46:02;;;;;;;16.73;9.70;;;;;;;3.65;100.00;99127.84;5084693;28;20703;-63
2023/03/06 05:48:29;;;;;;;11.00;8.07;;;;;;;3.37;100.00;99136.16;5083405;28;20892;-63
2023/03/06 05:50:57;;;;;;;15.30;10.77;;;;;;;3.39;100.00;99123.66;5099209;28;20530;-64
2023/03/06 05:53:25;;;;;;;17.57;8.37;;;;;;;3.24;100.00;99129.34;5062176;28;20475;-64
2023/03/06 05:55:56;;;;;;;15.60;10.73;;;;;;;3.18;100.00;99128.03;5071997;28;20465;-64
2023/03/06 05:58:23;;;;;;;15.23;10.23;;;;;;;2.93;100.00;99127.28;5086923;28;21019;-64
2023/03/06 06:00:50;;;;;;;12.57;9.40;;;;;;;2.79;100.00;99120.44;5060291;28;20461;-64
2023/03/06 06:03:17;;;;;;;20.47;9.97;;;;;;;2.74;100.00;99125.25;5073851;28;20484;-64
2023/03/06 06:05:44;;;;;;;15.37;10.60;;;;;;;2.64;100.00;99125.13;5080969;28;20511;-64
2023/03/06 06:08:12;;;;;;;18.70;12.13;;;;;;;2.42;100.00;99123.28;5061880;28;20464;-65
2023/03/06 06:10:39;;;;;;;15.60;10.77;;;;;;;2.60;100.00;99128.97;5080143;28;20504;-64
2023/03/06 06:13:06;;;;;;;13.77;9.73;;;;;;;2.58;100.00;99120.31;5077653;28;20491;-65
2023/03/06 06:15:32;;;;;;;14.87;10.47;;;;;;;2.64;100.00;99124.28;5078197;28;20460;-65
2023/03/06 06:17:59;;;;;;;20.00;12.03;;;;;;;2.64;100.00;99125.13;5078922;28;20488;-64
2023/03/06 06:20:27;;;;;;;14.70;11.20;;;;;;;2.45;100.00;99117.78;5070936;28;21442;-64
2023/03/06 06:22:54;;;;;;;15.77;11.20;;;;;;;2.61;100.00;99116.59;5080616;28;20456;-64
2023/03/06 06:25:21;;;;;;;16.80;12.10;;;;;;;2.45;100.00;99124.84;5069207;28;20470;-64
2023/03/06 06:27:48;;;;;;;20.50;13.20;;;;;;;2.43;100.00;99124.09;5079703;28;20914;-63
2023/03/06 06:30:15;;;;;;;14.80;11.77;;;;;;;2.52;100.00;99117.28;5096727;28;20470;-63
2023/03/06 06:32:42;;;;;;;18.20;12.77;;;;;;;2.70;100.00;99118.53;5079582;28;20471;-63
2023/03/06 06:35:09;;;;;;;20.20;14.70;;;;;;;2.50;100.00;99121.84;5087560;28;20527;-63
2023/03/06 06:37:36;;;;;;;19.53;14.30;;;;;;;2.68;100.00;99116.97;5093837;28;20451;-63
2023/03/06 06:40:03;;;;;;;22.67;15.87;;;;;;;2.69;100.00;99119.50;5089849;28;20443;-64
2023/03/06 06:42:31;;;;;;;23.53;14.47;;;;;;;2.69;100.00;99121.28;5090512;28;20579;-64
2023/03/06 06:44:58;;;;;;;25.20;15.30;;;;;;;2.59;100.00;99116.72;5080749;28;20441;-63
2023/03/06 06:47:25;;;;;;;29.20;17.93;;;;;;;2.40;100.00;99108.53;5093593;28;20496;-63
2023/03/06 06:49:52;;;;;;;23.83;17.20;;;;;;;2.66;100.00;99109.19;5077290;28;20475;-64
2023/03/06 06:52:19;;;;;;;24.30;17.30;;;;;;;2.78;100.00;99117.94;5073783;28;20476;-64
2023/03/06 06:54:45;;;;;;;23.63;15.20;;;;;;;2.82;100.00;99112.28;5079559;28;20511;-63
2023/03/06 06:57:12;;;;;;;25.33;16.23;;;;;;;2.83;100.00;99113.97;5077363;28;20476;-63
2023/03/06 06:59:40;;;;;;;26.80;16.90;;;;;;;2.94;100.00;99112.31;5079002;28;20716;-63
2023/03/06 07:02:07;;;;;;;22.57;16.37;;;;;;;2.93;100.00;99119.38;5079127;28;20521;-63
2023/03/06 07:04:34;;;;;;;20.67;15.03;;;;;;;2.94;100.00;99117.59;5076040;28;20438;-63
2023/03/06 07:07:01;;;;;;;22.80;15.77;;;;;;;2.74;100.00;99105.94;5071464;28;20485;-63
2023/03/06 07:09:29;;;;;;;19.57;15.93;;;;;;;2.87;100.00;99111.13;5074558;28;20510;-63
2023/03/06 07:11:55;;;;;;;22.10;15.40;;;;;;;2.82;100.00;99117.56;5070446;28;20541;-64
2023/03/06 07:14:22;;;;;;;18.90;15.30;;;;;;;2.97;100.00;99118.19;5085430;28;20487;-64
2023/03/06 07:16:50;;;;;;;21.13;14.80;;;;;;;2.72;100.00;99111.31;5086816;28;20499;-64
2023/03/06 07:19:17;;;;;;;20.47;15.00;;;;;;;2.75;100.00;99111.09;5066027;28;20491;-63
2023/03/06 07:21:43;;;;;;;15.90;13.27;;;;;;;2.89;100.00;99110.03;5078805;28;20476;-63
2023/03/06 07:24:10;;;;;;;23.17;14.70;;;;;;;3.05;100.00;99114.09;5089694;28;20482;-63
2023/03/06 07:26:37;;;;;;;19.37;14.40;;;;;;;3.05;100.00;99106.19;5061958;28;20550;-65
2023/03/06 07:29:04;;;;;;;24.23;16.70;;;;;;;3.32;100.00;99111.09;5074147;28;20456;-64
2023/03/06 07:31:30;;;;;;;18.20;13.03;;;;;;;3.01;100.00;99113.50;5069144;28;20515;-65
2023/03/06 07:33:58;;;;;;;16.43;12.90;;;;;;;3.10;100.00;99118.06;5069115;28;20836;-61
2023/03/06 07:36:25;;;;;;;14.90;12.60;;;;;;;2.70;100.00;99115.88;5089464;28;20507;-63
2023/03/06 07:38:52;;;;;;;18.63;12.87;;;;;;;2.88;100.00;99118.06;5084894;28;20504;-62
2023/03/06 07:41:18;;;;;;;32.30;14.47;;;;;;;3.05;100.00;99114.09;5083460;28;20518;-62
2023/03/06 07:43:46;;;;;;;24.30;14.67;;;;;;;2.89;100.00;99123.22;5102314;28;20444;-63
2023/03/06 07:46:15;;;;;;;20.63;13.43;;;;;;;2.86;100.00;99119.97;5101651;28;20491;-62
2023/03/06 07:48:42;;;;;;;19.43;13.00;;;;;;;2.67;100.00;99116.13;5103177;28;20490;-64
2023/03/06 07:51:15;;;;;;;20.40;12.57;;;;;;;2.75;100.00;99115.53;5101671;28;20491;-62
2023/03/06 07:53:41;;;;;;;16.73;11.57;;;;;;;2.67;100.00;99118.75;5091386;28;20452;-61
2023/03/06 07:56:09;;;;;;;17.10;13.60;;;;;;;2.86;100.00;99118.16;5101978;28;20502;-61
2023/03/06 07:58:37;;;;;;;15.93;12.23;;;;;;;2.81;100.00;99115.91;5100434;28;20512;-62
2023/03/06 08:01:04;;;;;;;19.07;12.17;;;;;;;2.71;100.00;99114.06;5100120;28;20466;-61
2023/03/06 08:03:31;;;;;;;16.50;11.97;;;;;;;2.73;100.00;99114.81;5092425;28;20458;-62
2023/03/06 08:06:05;;;;;;;13.23;11.03;;;;;;;2.84;100.00;99109.53;5092705;28;20673;-62
2023/03/06 08:08:34;;;;;;;14.00;10.53;;;;;;;2.84;100.00;99114.81;5093945;28;20482;-62
2023/03/06 08:11:01;;;;;;;16.10;11.50;;;;;;;2.70;100.00;99112.41;5102293;28;20482;-62
2023/03/06 08:13:28;;;;;;;15.63;11.00;;;;;;;2.52;100.00;99117.28;5104581;28;20831;-62
2023/03/06 08:15:55;;;;;;;12.67;10.20;;;;;;;2.58;100.00;99111.56;5113050;28;20478;-62
2023/03/06 08:18:22;;;;;;;14.73;11.50;;;;;;;2.61;100.00;99112.16;5102578;28;20462;-62
2023/03/06 08:20:49;;;;;;;13.90;9.93;;;;;;;2.65;100.00;99110.13;5103424;28;20478;-62
2023/03/06 08:23:15;;;;;;;17.80;10.03;;;;;;;2.75;100.00;99123.47;5110382;28;20468;-63
2023/03/06 08:25:43;;;;;;;16.47;11.47;;;;;;;2.91;100.00;99120.47;5120674;28;20473;-62
2023/03/06 08:28:10;;;;;;;17.90;11.13;;;;;;;2.87;100.00;99122.50;5106148;28;20455;-62
2023/03/06 08:30:36;;;;;;;14.53;11.33;;;;;;;2.82;100.00;99119.38;5100101;28;20481;-63
2023/03/06 08:33:03;;;;;;;17.73;11.20;;;;;;;2.52;100.00;99128.72;5107618;28;20455;-62
2023/03/06 08:35:30;;;;;;;12.50;9.47;;;;;;;2.73;100.00;99126.22;5123970;28;20541;-62
2023/03/06 08:37:56;;;;;;;14.80;10.10;;;;;;;2.78;100.00;99133.78;5109114;28;20462;-62
2023/03/06 08:40:25;;;;;;;14.87;9.77;;;;;;;2.81;100.00;99126.47;5105245;28;20915;-62
2023/03/06 08:42:53;;;;;;;17.27;10.63;;;;;;;2.89;100.00;99132.94;5123603;28;20485;-62
2023/03/06 08:45:20;;;;;;;13.33;8.63;;;;;;;2.74;100.00;99127.91;5123824;28;20466;-62
2023/03/06 08:47:47;;;;;;;12.40;10.83;;;;;;;2.63;100.00;99139.25;5122842;28;20450;-62
2023/03/06 08:50:14;;;;;;;12.23;9.47;;;;;;;2.75;100.00;99132.22;5123157;28;20445;-62
2023/03/06 08:52:40;;;;;;;13.23;9.10;;;;;;;2.88;100.00;99134.72;5120871;28;20484;-64
2023/03/06 08:55:08;;;;;;;13.37;8.53;;;;;;;3.28;100.00;99134.28;5113114;28;20503;-63
2023/03/06 08:57:35;;;;;;;13.63;9.37;;;;;;;3.20;100.00;99134.03;5103075;28;20466;-63
2023/03/06 09:00:07;;;;;;;13.57;9.43;;;;;;;3.28;100.00;99136.03;5103613;28;20450;-63
2023/03/06 09:02:34;;;;;;;13.80;9.87;;;;;;;3.19;100.00;99142.91;5110280;28;20458;-62
2023/03/06 09:05:01;;;;;;;11.57;8.77;;;;;;;3.38;100.00;99140.47;5123972;28;20439;-64
2023/03/06 09:07:27;;;;;;;14.67;9.83;;;;;;;3.30;100.00;99150.84;5105086;28;20478;-64
2023/03/06 09:09:56;;;;;;;13.10;9.47;;;;;;;3.07;100.00;99135.94;5108382;28;20447;-64
2023/03/06 09:12:23;;;;;;;11.87;8.70;;;;;;;2.92;100.00;99144.09;5122567;28;20508;-63
2023/03/06 09:14:50;;;;;;;12.60;9.67;;;;;;;3.18;100.00;99136.78;5107024;28;20562;-64
2023/03/06 09:17:18;;;;;;;11.40;8.40;;;;;;;3.21;100.00;99140.97;5109422;28;20507;-64
2023/03/06 09:19:44;;;;;;;12.80;8.50;;;;;;;3.01;100.00;99138.09;5112269;28;20432;-64
2023/03/06 09:22:11;;;;;;;11.83;8.30;;;;;;;3.09;100.00;99134.00;5103434;28;20507;-64
2023/03/06 09:24:38;;;;;;;11.37;8.50;;;;;;;3.35;100.00;99135.44;5103541;28;20446;-64
2023/03/06 09:27:05;;;;;;;11.47;8.47;;;;;;;3.54;100.00;99139.25;5106225;28;21037;-64
2023/03/06 09:29:31;;;;;;;12.83;9.87;;;;;;;3.56;100.00;99142.63;5082433;28;20463;-64
2023/03/06 09:31:58;;;;;;;10.80;8.50;;;;;;;3.64;100.00;99137.53;5110447;28;20495;-64
2023/03/06 09:34:26;;;;;;;13.37;9.70;;;;;;;3.53;100.00;99145.50;5118589;28;20467;-64
2023/03/06 09:36:53;;;;;;;9.77;8.03;;;;;;;3.64;100.00;99142.00;5102431;28;20467;-64
2023/03/06 09:39:19;;;;;;;12.53;8.77;;;;;;;3.60;100.00;99141.41;5103269;28;20464;-64
2023/03/06 09:41:47;;;;;;;9.60;8.30;;;;;;;3.45;100.00;99146.09;5112116;28;20510;-64
2023/03/06 09:44:16;;;;;;;9.17;7.50;;;;;;;3.37;100.00;99146.72;5122675;28;20446;-64
2023/03/06 09:46:47;;;;;;;11.97;9.37;;;;;;;3.10;100.00;99147.09;5122097;28;20462;-64
2023/03/06 09:49:30;;;;;;;9.07;7.90;;;;;;;3.17;100.00;99144.81;5122861;28;20482;-64
2023/03/06 09:52:09;;;;;;;12.47;8.10;;;;;;;2.94;100.00;99149.28;5108315;28;20472;-64
2023/03/06 09:54:40;;;;;;;10.73;9.00;;;;;;;3.08;100.00;99151.66;5103225;28;20773;-63
2023/03/06 09:57:13;;;;;;;13.13;9.40;;;;;;;2.96;100.00;99150.81;5107052;28;20482;-63
2023/03/06 09:59:43;;;;;;;10.73;8.90;;;;;;;3.19;100.00;99142.91;5101817;28;20446;-62
2023/03/06 10:02:14;;;;;;;11.10;9.00;;;;;;;3.56;100.00;99146.09;5103333;28;20475;-64
2023/03/06 10:04:43;;;;;;;12.77;9.37;;;;;;;3.61;100.00;99145.75;5123027;28;20429;-63
2023/03/06 10:07:14;;;;;;;11.77;9.60;;;;;;;3.82;100.00;99145.81;5103250;28;20500;-63
2023/03/06 10:09:45;;;;;;;10.33;8.67;;;;;;;3.88;100.00;99145.28;5101335;28;20531;-62
2023/03/06 10:12:24;;;;;;;13.77;9.47;;;;;;;3.80;100.00;99144.25;5108553;28;20506;-63
2023/03/06 10:14:59;;;;;;;11.10;8.67;;;;;;;3.63;100.00;99143.81;5102570;28;20500;-64
2023/03/06 10:17:26;;;;;;;11.27;8.90;;;;;;;3.68;100.00;99139.00;5109751;28;20487;-64
2023/03/06 10:19:54;;;;;;;11.90;8.27;;;;;;;3.77;100.00;99137.41;5101860;28;20536;-63
2023/03/06 10:22:26;;;;;;;11.83;8.90;;;;;;;3.92;100.00;99143.25;5103837;28;21037;-63
2023/03/06 10:24:55;;;;;;;11.10;8.30;;;;;;;4.02;100.00;99138.88;5100960;28;20456;-64
2023/03/06 10:27:32;;;;;;;10.40;8.43;;;;;;;4.39;100.00;99143.75;5099756;28;21547;-64
2023/03/06 10:30:06;;;;;;;11.33;7.50;;;;;;;4.49;100.00;99143.81;5100093;28;20454;-63
2023/03/06 10:32:41;;;;;;;9.53;7.47;;;;;;;4.43;100.00;99141.72;5100892;28;20503;-64
2023/03/06 10:35:15;;;;;;;7.83;6.70;;;;;;;4.88;100.00;99134.31;5101244;28;20472;-64
2023/03/06 10:37:42;;;;;;;11.77;8.00;;;;;;;5.00;100.00;99131.56;5100507;28;20448;-64
2023/03/06 10:40:17;;;;;;;9.50;7.50;;;;;;;5.48;100.00;99130.91;5100545;28;20444;-64
2023/03/06 10:42:45;;;;;;;9.60;7.90;;;;;;;5.99;100.00;99140.53;5100220;28;20558;-64
2023/03/06 10:45:13;;;;;;;7.63;6.30;;;;;;;6.26;100.00;99132.84;5100090;28;20476;-64
2023/03/06 10:47:40;;;;;;;7.70;6.40;;;;;;;6.03;100.00;99139.25;5100666;28;20546;-64
2023/03/06 10:50:24;;;;;;;8.83;6.30;;;;;;;5.63;100.00;99141.97;5100443;28;20450;-63
2023/03/06 10:53:00;;;;;;;10.03;7.13;;;;;;;4.66;100.00;99142.41;5104482;28;20455;-64
2023/03/06 10:55:29;;;;;;;6.47;5.70;;;;;;;4.33;100.00;99147.75;5100231;28;20463;-63
2023/03/06 10:57:55;;;;;;;10.80;6.80;;;;;;;4.01;100.00;99150.44;5099858;28;20455;-65
2023/03/06 11:00:32;;;;;;;7.43;6.00;;;;;;;4.17;100.00;99151.78;5100390;28;20520;-63
2023/03/06 11:03:10;;;;;;;8.57;6.97;;;;;;;4.02;100.00;99152.09;5100597;28;20474;-63
2023/03/06 11:05:39;;;;;;;7.57;6.73;;;;;;;4.13;100.00;99152.06;5098732;28;20461;-64
2023/03/06 11:08:20;;;;;;;9.10;7.40;;;;;;;4.34;100.00;99151.25;5100892;28;20477;-64
2023/03/06 11:10:55;;;;;;;8.17;6.10;;;;;;;4.67;100.00;99152.00;5100702;28;20535;-64
2023/03/06 11:13:24;;;;;;;8.03;6.03;;;;;;;4.52;100.00;99148.88;5096704;28;20457;-64
2023/03/06 11:15:56;;;;;;;8.93;6.43;;;;;;;4.84;100.00;99143.50;5100021;28;20988;-64
2023/03/06 11:18:29;;;;;;;5.47;4.93;;;;;;;4.98;100.00;99144.97;5100389;28;20706;-64
2023/03/06 11:20:58;;;;;;;6.27;5.53;;;;;;;5.35;100.00;99157.66;5103954;28;20471;-63
2023/03/06 11:23:32;;;;;;;8.27;6.40;;;;;;;5.30;100.00;99157.22;5101083;28;20453;-63
2023/03/06 11:26:03;;;;;;;7.83;6.43;;;;;;;5.21;100.00;99153.56;5100069;28;20505;-64